Who's Online

We have 8 guests online

Aviation WX

[source: ADDS]
METAR
KIAD 011452Z 19007KT 140V220 10SM SCT100 BKN250 27/20 A2995 RMK AO2 SLP140 T02720200 58011 =
TAF
KIAD 011458Z 0115/0218 21008G16KT P6SM SCT050 BKN100 FM011900 22008G16KT P6SM VCTS BKN050CB BKN100 FM020100 24004KT P6SM SCT050 SCT100 FM020500 31006KT P6SM SCT250 =
SR / SS: 23:33 / 14:18 UTC (Washington-Dulles 2016-07-01)

JoomlaWatch Agent

Home Products and Services

This section describes Multilink Systems products and services

 

 

Under construction Please Standby